Latest Weather Observations for West Roebuck

IDW60801

Issued at 8:31 pm WST Monday 2 May 2016 (issued every 30 minutes, with the page automatically refreshed every 10 minutes)

About weather observations | Map of weather stations | Latest weather observations for WA | Other Formats
Station Details ID: 003096 Name: WEST ROEBUCK Lat: -17.90 Lon: 122.31 Height: 32.0 m
Data from the previous 72 hours. | See also: Recent months at West Roebuck
Date/Time
WST
Temp
°C
App
Temp
°C
Dew
Point
Rel
Hum
%
Delta-T
°C
Wind Press
QNH
hPa
Press
MSL
hPa
Rain
since 9 am
mm
Dir
 
Spd
km/h
Gust
km/h
Spd
kts
Gust
kts
02/08:30pm 26.7 - - - - W 9 11 5 6 - - 0.0
02/08:00pm 27.1 - - - - W 7 11 4 6 - - 0.0
02/07:30pm 27.4 - - - - WNW 11 13 6 7 - - 0.0
02/07:00pm 27.6 - - - - W 9 11 5 6 - - 0.0
02/06:30pm 28.3 - - - - W 9 11 5 6 - - 0.0
02/06:00pm 29.1 - - - - W 9 13 5 7 - - 0.0
02/05:30pm 30.2 - - - - WSW 11 17 6 9 - - 0.0
02/05:00pm 31.5 - - - - WSW 13 20 7 11 - - 0.0
02/04:30pm 32.4 - - - - W 19 30 10 16 - - 0.0
02/04:00pm 33.6 - - - - WSW 17 26 9 14 - - 0.0
02/03:30pm 34.7 - - - - WSW 17 24 9 13 - - 0.0
02/03:00pm 35.5 - - - - WSW 17 20 9 11 - - 0.0
02/02:30pm 36.4 - - - - WSW 15 24 8 13 - - 0.0
02/02:00pm 35.7 - - - - WSW 17 24 9 13 - - 0.0
02/01:30pm 35.5 - - - - WSW 17 24 9 13 - - 0.0
02/01:00pm 36.0 - - - - SW 17 26 9 14 - - 0.0
02/12:30pm 35.2 - - - - WSW 17 24 9 13 - - 0.0
02/12:00pm 35.8 - - - - WSW 13 20 7 11 - - 0.0
02/11:30am 35.3 - - - - SW 15 26 8 14 - - 0.0
02/11:00am 34.9 - - - - WSW 17 24 9 13 - - 0.0
02/10:30am 34.2 - - - - SW 15 24 8 13 - - 0.0
02/10:00am 33.0 - - - - SW 15 24 8 13 - - 0.0
02/09:30am 32.7 - - - - SW 15 24 8 13 - - 0.0
02/09:00am 31.9 - - - - SSW 17 24 9 13 - - -
02/08:30am 30.8 - - - - SW 15 24 8 13 - - -
02/08:00am 29.0 - - - - SW 11 20 6 11 - - -
02/07:30am 26.6 - - - - SSW 6 9 3 5 - - -
02/07:00am 24.1 - - - - - - - - - - - -
02/06:30am 22.8 - - - - CALM 0 0 0 0 - - 0.0
02/06:00am 22.4 - - - - CALM 0 0 0 0 - - 0.0
02/05:30am 22.4 - - - - CALM 0 0 0 0 - - 0.0
02/05:00am 22.1 - - - - S 6 9 3 5 - - 0.0
02/04:30am 22.9 - - - - CALM 0 2 0 1 - - 0.0
02/04:00am 23.6 - - - - CALM 0 2 0 1 - - 0.0
02/03:30am 23.0 - - - - NNW 7 11 4 6 - - 0.0
02/03:00am 23.0 - - - - NNW 6 9 3 5 - - 0.0
02/02:30am 23.8 - - - - SSW 7 9 4 5 - - 0.0
02/02:00am 22.7 - - - - SSW 6 9 3 5 - - 0.0
02/01:30am 23.4 - - - - WSW 4 9 2 5 - - 0.0
02/01:00am 23.5 - - - - CALM 0 0 0 0 - - 0.0
02/12:30am 23.7 - - - - NW 6 7 3 4 - - 0.0
02/12:00am 23.5 - - - - CALM 0 0 0 0 - - 0.0
 
Date/Time
WST
Temp
°C
App
Temp
°C
Dew
Point
Rel
Hum
%
Delta-T
°C
Wind Press
QNH
hPa
Press
MSL
hPa
Rain
since 9 am
mm
Dir
 
Spd
km/h
Gust
km/h
Spd
kts
Gust
kts
01/11:30pm 24.1 - - - - WSW 2 6 1 3 - - 0.0
01/11:00pm 24.4 - - - - WSW 7 7 4 4 - - 0.0
01/10:30pm 23.9 - - - - W 6 6 3 3 - - 0.0
01/10:00pm 24.4 - - - - WSW 6 7 3 4 - - 0.0
01/09:30pm 24.1 - - - - W 7 9 4 5 - - 0.0
01/09:00pm 24.7 - - - - NW 9 9 5 5 - - 0.0
01/08:30pm 26.0 - - - - NNW 7 9 4 5 - - 0.0
01/08:00pm 26.3 - - - - NW 6 7 3 4 - - 0.0
01/07:30pm 27.2 - - - - WNW 6 9 3 5 - - 0.0
01/07:00pm 28.0 - - - - WSW 9 13 5 7 - - 0.0
01/06:30pm 28.4 - - - - WSW 9 13 5 7 - - 0.0
01/06:00pm 28.7 - - - - WSW 11 15 6 8 - - 0.0
01/05:30pm 29.2 - - - - WSW 17 26 9 14 - - 0.0
01/05:00pm 30.0 - - - - WSW 17 26 9 14 - - 0.0
01/04:30pm 31.4 - - - - W 19 26 10 14 - - 0.0
01/04:00pm 31.9 - - - - WSW 19 28 10 15 - - 0.0
01/03:30pm 32.4 - - - - WSW 22 32 12 17 - - 0.0
01/03:00pm 33.2 - - - - W 22 35 12 19 - - 0.0
01/02:30pm 32.9 - - - - WSW 24 32 13 17 - - 0.0
01/02:00pm 34.3 - - - - W 20 28 11 15 - - 0.0
01/01:30pm 34.2 - - - - WSW 20 32 11 17 - - 0.0
01/01:00pm 34.6 - - - - WSW 17 30 9 16 - - 0.0
01/12:30pm 34.9 - - - - WSW 17 28 9 15 - - 0.0
01/12:00pm 34.7 - - - - WSW 17 24 9 13 - - 0.0
01/11:30am 34.1 - - - - WSW 13 20 7 11 - - 0.0
01/11:00am 33.7 - - - - SW 11 24 6 13 - - 0.0
01/10:30am 33.2 - - - - SSW 11 20 6 11 - - 0.0
01/10:00am 31.3 - - - - S 13 24 7 13 - - 0.0
01/09:30am 31.1 - - - - SSW 15 22 8 12 - - 0.0
01/09:00am 30.4 - - - - SSW 17 24 9 13 - - 0.0
01/08:30am 30.1 - - - - CALM 0 0 0 0 - - 0.0
01/08:00am 28.7 - - - - CALM 0 0 0 0 - - 0.0
01/07:30am 27.2 - - - - CALM 0 0 0 0 - - 0.0
01/07:00am 24.9 - - - - CALM 0 0 0 0 - - 0.0
01/06:30am 23.7 - - - - CALM 0 0 0 0 - - 0.0
01/06:00am 23.8 - - - - CALM 0 0 0 0 - - 0.0
01/05:30am 23.5 - - - - CALM 0 0 0 0 - - 0.0
01/05:00am 22.9 - - - - CALM 0 0 0 0 - - 0.0
01/04:30am 22.6 - - - - CALM 0 0 0 0 - - 0.0
01/04:00am 23.3 - - - - CALM 0 0 0 0 - - 0.0
01/03:30am 24.3 - - - - CALM 0 0 0 0 - - 0.0
01/03:00am 24.1 - - - - S 9 11 5 6 - - 0.0
01/02:30am 23.6 - - - - SSW 7 9 4 5 - - 0.0
01/02:00am 23.0 - - - - WSW 6 6 3 3 - - 0.0
01/01:30am 22.9 - - - - WSW 6 7 3 4 - - 0.0
01/01:00am 22.5 - - - - W 7 9 4 5 - - 0.0
01/12:30am 22.8 - - - - SW 6 7 3 4 - - 0.0
01/12:00am 22.7 - - - - SW 4 6 2 3 - - 0.0
 
Date/Time
WST
Temp
°C
App
Temp
°C
Dew
Point
Rel
Hum
%
Delta-T
°C
Wind Press
QNH
hPa
Press
MSL
hPa
Rain
since 9 am
mm
Dir
 
Spd
km/h
Gust
km/h
Spd
kts
Gust
kts
30/11:30pm 24.0 - - - - SW 7 9 4 5 - - 0.0
30/11:00pm 23.8 - - - - WSW 9 9 5 5 - - 0.0
30/10:30pm 23.2 - - - - W 4 7 2 4 - - 0.0
30/10:00pm 23.9 - - - - CALM 0 0 0 0 - - 0.0
30/09:30pm 24.4 - - - - CALM 0 0 0 0 - - 0.0
30/09:00pm 24.8 - - - - CALM 0 2 0 1 - - 0.0
30/08:30pm 24.8 - - - - WSW 6 7 3 4 - - 0.0
30/08:00pm 25.5 - - - - WSW 7 9 4 5 - - 0.0
30/07:30pm 26.3 - - - - SW 7 9 4 5 - - 0.0
30/07:00pm 26.7 - - - - W 7 9 4 5 - - 0.0
30/06:30pm 27.7 - - - - WSW 7 9 4 5 - - 0.0
30/06:00pm 28.4 - - - - WSW 9 11 5 6 - - 0.0
30/05:30pm 29.2 - - - - WSW 11 17 6 9 - - 0.0
30/05:00pm 30.3 - - - - WSW 15 20 8 11 - - 0.0
30/04:30pm 31.6 - - - - W 17 24 9 13 - - 0.0
30/04:00pm 32.4 - - - - WSW 17 24 9 13 - - 0.0
30/03:30pm 32.9 - - - - WSW 19 28 10 15 - - 0.0
30/03:00pm 33.7 - - - - WSW 17 24 9 13 - - 0.0
30/02:30pm 34.3 - - - - WSW 19 24 10 13 - - 0.0
30/02:00pm 35.1 - - - - SW 15 24 8 13 - - 0.0
30/01:30pm 34.4 - - - - SW 13 26 7 14 - - 0.0
30/01:00pm 34.5 - - - - CALM 0 0 0 0 - - 0.0
30/12:30pm 34.3 - - - - CALM 0 0 0 0 - - 0.0
30/12:00pm 33.6 - - - - CALM 0 0 0 0 - - 0.0
30/11:30am 32.7 - - - - CALM 0 0 0 0 - - 0.0
30/11:00am 31.8 - - - - CALM 0 0 0 0 - - 0.0
30/10:30am 32.2 - - - - CALM 0 0 0 0 - - 0.0
30/10:00am 30.8 - - - - CALM 0 0 0 0 - - 0.0
30/09:30am 29.7 - - - - CALM 0 0 0 0 - - 0.0
30/09:00am 29.3 - - - - CALM 0 11 0 6 - - 0.0
30/08:30am 28.7 - - - - CALM 0 0 0 0 - - 0.0
30/08:00am 27.4 - - - - CALM 0 0 0 0 - - 0.0
30/07:30am 24.8 - - - - CALM 0 0 0 0 - - 0.0
30/07:00am 22.8 - - - - CALM 0 0 0 0 - - 0.0
30/06:30am 21.6 - - - - ESE 2 9 1 5 - - 0.0
30/06:00am 21.4 - - - - ESE 6 9 3 5 - - 0.0
30/05:30am 21.6 - - - - ESE 7 11 4 6 - - 0.0
30/05:00am 22.2 - - - - NNW 6 7 3 4 - - 0.0
30/04:30am 22.3 - - - - NNW 7 7 4 4 - - 0.0
30/04:00am 22.4 - - - - NW 6 7 3 4 - - 0.0
30/03:30am 22.8 - - - - W 6 6 3 3 - - 0.0
30/03:00am 23.1 - - - - W 6 7 3 4 - - 0.0
30/02:30am 22.3 - - - - W 7 9 4 5 - - 0.0
30/02:00am 23.7 - - - - WSW 9 9 5 5 - - 0.0
30/01:30am 23.2 - - - - SW 7 7 4 4 - - 0.0
30/01:00am 23.2 - - - - WSW 2 6 1 3 - - 0.0
30/12:30am 23.6 - - - - WSW 9 9 5 5 - - 0.0
30/12:00am 23.4 - - - - WSW 6 7 3 4 - - 0.0
 
Date/Time
WST
Temp
°C
App
Temp
°C
Dew
Point
Rel
Hum
%
Delta-T
°C
Wind Press
QNH
hPa
Press
MSL
hPa
Rain
since 9 am
mm
Dir
 
Spd
km/h
Gust
km/h
Spd
kts
Gust
kts
29/11:30pm 23.8 - - - - WSW 6 7 3 4 - - 0.0
29/11:00pm 23.8 - - - - W 6 7 3 4 - - 0.0
29/10:30pm 24.0 - - - - WNW 7 7 4 4 - - 0.0
29/10:00pm 24.0 - - - - WNW 9 9 5 5 - - 0.0
29/09:30pm 24.3 - - - - W 7 7 4 4 - - 0.0
29/09:00pm 24.3 - - - - WNW 7 9 4 5 - - 0.0

Other Formats:

Comma delimited format used in spreadsheet applications
http://www.bom.gov.au/fwo/IDW60801/IDW60801.95204.axf

JavaScript Object Notation format (JSON) in row-major order
http://www.bom.gov.au/fwo/IDW60801/IDW60801.95204.json